Nearby METAR Reports

CWGD - Goderich (autob), Ontario, Canada
Distance from station: SW 47km
Updated: 06/23/2018 7:00pm

 Wind from NNW
Wind: NNW 9 km/h
Temperature: 18°C
Dew Point: 16°C
Humidity: 88%
2018/06/23 23:00 CWGD 232300Z AUTO 33005KT 18/16 RMK AO1 SLP062 T01810158 51007
CWLS - Mount Forest(Mar, Ontario, Canada
Distance from station: ESE 53km
Updated: 06/23/2018 7:00pm

 Wind from ESE
Wind: ESE 2 km/h
Temperature: 18°C
Dew Point: 16°C
Humidity: 88%
2018/06/23 23:00 CWLS 232300Z AUTO 11001KT 18/16 RMK AO1 SLP075 T01780162 53006
 
CYVV - Wiarton Air, Ontario, Canada
Distance from station: NNE 75km
Updated: 06/23/2018 7:00pm
Overcast
Overcast
 Wind from E
Wind: E 6 km/h
Temperature: 18°C
Dew Point: 16°C
Humidity: 88%
Barometer: 1007.5 hPa
Clouds: Overcast
Visibility: 24 km
Cloud details: Mostly cloudy 914 m
Overcast 2134 m
2018/06/23 23:00 CYVV 232300Z 08003KT 15SM BKN030 OVC070 18/16 A2975 RMK SC6AC2 SLP077 DENSITY ALT 1500FT
CZEL - Elora Rcs, Ontario, Canada
Distance from station: ESE 93km
Updated: 06/23/2018 7:00pm

 Wind from ESE
Wind: ESE 6 km/h
Temperature: 18°C
Dew Point: 16°C
Humidity: 88%
2018/06/23 23:00 CZEL 232300Z AUTO 12003KT 18/16 RMK AO1 SLP075 T01830164 53003
 
CWCO - Collingwood (aut, Ontario, Canada
Distance from station: ENE 104km
Updated: 06/23/2018 7:00pm

 Wind from SSE
Wind: SSE 4 km/h
Temperature: 19°C
Dew Point: 16°C
Humidity: 83%
2018/06/23 23:00 CWCO 232300Z AUTO 15002KT 19/16 RMK AO1 SLP066 T01870159 55002
CYKF - Waterloo Well, Ontario, Canada
Distance from station: SE 107km
Updated: 06/23/2018 7:07pm
Mist, Overcast
Mist, Overcast
 Wind from E
Wind: E 7 km/h
Temperature: 18°C
Dew Point: 18°C
Humidity: 100%
Barometer: 1007.5 hPa
Summary: Mist
Clouds: Overcast
Visibility: 8 km
Cloud details: Overcast 152 m
2018/06/23 23:07 CYKF 232307Z AUTO 10004KT 5SM BR OVC005 18/18 A2975 RMK SLP073 DENSITY ALT 1800FT
 
KP58 - Port Hope, Michigan, USA
Distance from station: W 114km
Updated: 06/23/2018 6:51pm

 Wind from calm
Wind: Calm
Temperature: 15°C
Dew Point: 15°C
Humidity: 100%
Barometer: 1007.1 hPa
2018/06/23 22:51 KP58 232251Z AUTO 00000KT 15/15 A2974 RMK AO1 SLP067 T01500150
CYBN - Borden, Ontario, Canada
Distance from station: E 118km
Updated: 06/23/2018 7:13pm
Overcast
Overcast
 Wind from ESE
Wind: ESE 4 km/h
Temperature: 19°C
Dew Point: 16°C
Humidity: 83%
Barometer: 1007.5 hPa
Clouds: Overcast
Visibility: 14 km
Cloud details: Overcast 427 m
2018/06/23 23:13 CYBN 232313Z AUTO 12002KT 9SM OVC014 19/16 A2975
 
CYXU - London Airport, Ontario, Canada
Distance from station: S 123km
Updated: 06/23/2018 7:00pm
Mostly cloudy
Mostly cloudy
 Wind from SSE
Wind: SSE 7 km/h
Temperature: 22°C
Dew Point: 19°C
Humidity: 83%
Barometer: 1006.1 hPa
Clouds: Mostly cloudy
Visibility: 24 km
Cloud details: Partly cloudy 792 m
Mostly cloudy 1189 m
2018/06/23 23:00 CYXU 232300Z 16004KT 15SM SCT026 BKN039 22/19 A2971 RMK SC4SC3 SLP060 DENSITY ALT 2200FT
CXET - Egbert Cs, Ontario, Canada
Distance from station: E 128km
Updated: 06/23/2018 7:00pm

 Wind from ESE
Wind: ESE 6 km/h
Temperature: 18°C
Dew Point: 15°C
Humidity: 83%
2018/06/23 23:00 CXET 232300Z AUTO 11003KT 18/15 RMK AO1 SLP072 T01810151 55002
 
CWMZ - Western Isl (map, Ontario, Canada
Distance from station: NE 129km
Updated: 06/23/2018 6:00pm
NOT Current

 Wind from ESE
Wind: ESE 24 km/h
Temperature: 17°C
Dew Point: 15°C
Humidity: 88%
2018/06/23 22:00 CWMZ 232200Z AUTO 11013KT 17/15 RMK AO1 SLP066 T01670149 58008
KBAX - Bad Axe, Michigan, USA
Distance from station: WSW 133km
Updated: 06/23/2018 7:16pm
Mist, Overcast
Mist, Overcast
 Wind from NE
Wind: NE 7 km/h
Temperature: 18°C
Dew Point: 18°C
Humidity: 100%
Barometer: 1007.5 hPa
Summary: Mist
Clouds: Overcast
Visibility: 5 km
Cloud details: Overcast 152 m
2018/06/23 23:16 KBAX 232316Z AUTO 05004KT 3SM BR OVC005 18/18 A2975 RMK AO2 T01830177
 
CWWX - Cove Island (map, Ontario, Canada
Distance from station: NNW 137km
Updated: 06/23/2018 6:00pm
NOT Current

 Wind from SE
Wind: SE 6 km/h
Temperature: 16°C
Dew Point: 12°C
Humidity: 77%
2018/06/23 22:00 CWWX 232200Z AUTO 13003KT 16/12 RMK AO1 SLP071 T01580120 55005
CYZR - Sarnia Airport, Ontario, Canada
Distance from station: SSW 144km
Updated: 06/23/2018 7:00pm
Clear
Clear
 Wind from NNE
Wind: NNE 17 km/h
Temperature: 22°C
Dew Point: 19°C
Humidity: 83%
Barometer: 1005.4 hPa
Clouds: Clear
Visibility: 14 km
2018/06/23 23:00 CYZR 232300Z AUTO 03009KT 9SM CLR 22/19 A2969 RMK SLP055 DENSITY ALT 1700FT
 
CXHM - Hamilton Rbg Cs, Ontario, Canada
Distance from station: SE 150km
Updated: 06/23/2018 7:00pm

 Wind from ESE
Wind: ESE 4 km/h
Temperature: 17°C
Dew Point: 17°C
Humidity: 100%
2018/06/23 23:00 CXHM 232300Z AUTO 12002KT 17/17 RMK AO1 SLP061 T01710166 53001
CYYZ - Toronto/Pearson, Ontario, Canada
Distance from station: ESE 150km
Updated: 06/23/2018 7:00pm
Overcast
Overcast
 Wind from E
Wind: E 7 km/h
Temperature: 19°C
Dew Point: 16°C
Humidity: 83%
Barometer: 1006.8 hPa
Clouds: Overcast
Visibility: 24 km
Cloud details: Overcast 457 m
Overcast 1067 m
2018/06/23 23:00 CYYZ 232300Z 10004KT 060V190 15SM OVC015 OVC035 19/16 A2973 RMK SC8SC1 SC TR SLP067 DENSITY ALT 1500FT
 
CXBI - Barrie-Oro, Ontario, Canada
Distance from station: ENE 151km
Updated: 06/23/2018 7:00pm

 Wind from E
Wind: E 9 km/h
Temperature: 17°C
Dew Point: 15°C
Humidity: 88%
2018/06/23 23:00 CXBI 232300Z AUTO 08005KT 17/15 RMK AO1 SLP076 T01740153 55002
CXDI - Delhi Cs (aut), Ontario, Canada
Distance from station: SSE 154km
Updated: 06/23/2018 7:00pm

 Wind from S
Wind: S 7 km/h
Temperature: 23°C
Dew Point: 19°C
Humidity: 78%
2018/06/23 23:00 CXDI 232300Z AUTO 17004KT 23/19 RMK AO1 SLP056 T02250187 53003
 
CWWB - Burlington Piers, Ontario, Canada
Distance from station: SE 157km
Updated: 06/23/2018 7:00pm

 Wind from NE
Wind: NE 11 km/h
Temperature: 16°C
Dew Point: 16°C
Humidity: 100%
2018/06/23 23:00 CWWB 232300Z AUTO 04006KT 16/16 RMK AO1 SLP067 T01620156 53002
CYHM - Hamilton Airport, Ontario, Canada
Distance from station: SE 157km
Updated: 06/23/2018 7:00pm
Mist, Overcast
Mist, Overcast
 Wind from NE
Wind: NE 11 km/h
Temperature: 17°C
Dew Point: 16°C
Humidity: 94%
Barometer: 1007.1 hPa
Summary: Mist
Clouds: Overcast
Visibility: 4 km
Cloud details: Overcast 91 m
2018/06/23 23:00 CYHM 232300Z 04006KT 2 1/2SM BR OVC003 17/16 A2974 RMK SF8 SLP071 DENSITY ALT 1500FT